createdAt,value
2022-08-03T00:04:35.637Z,963.74
2022-08-03T00:09:37.417Z,963.74
2022-08-03T00:14:39.126Z,963.77
2022-08-03T00:19:40.574Z,963.75
2022-08-03T00:24:42.356Z,963.71
2022-08-03T00:29:57.521Z,963.75
2022-08-03T00:34:57.421Z,963.7
2022-08-03T00:39:46.612Z,963.69
2022-08-03T00:44:48.778Z,963.71
2022-08-03T00:49:50.869Z,963.65
2022-08-03T00:54:52.485Z,963.67
2022-08-03T00:59:53.946Z,963.63
2022-08-03T01:04:55.657Z,963.72
2022-08-03T01:09:57.637Z,963.69
2022-08-03T01:14:59.453Z,963.68
2022-08-03T01:20:01.775Z,963.7
2022-08-03T01:25:02.966Z,963.53
2022-08-03T01:30:04.550Z,963.56
2022-08-03T01:35:06.790Z,963.57
2022-08-03T01:40:07.904Z,963.55
2022-08-03T01:45:09.610Z,963.54
2022-08-03T01:50:10.938Z,963.5
2022-08-03T01:55:12.334Z,963.49
2022-08-03T02:00:14.346Z,963.49
2022-08-03T02:05:16.024Z,963.47
2022-08-03T02:10:23.596Z,963.52
2022-08-03T02:15:18.925Z,963.48
2022-08-03T02:20:20.495Z,963.52
2022-08-03T02:25:22.073Z,963.53
2022-08-03T02:30:23.616Z,963.53
2022-08-03T02:35:25.561Z,963.55
2022-08-03T02:40:27.219Z,963.55
2022-08-03T02:45:28.514Z,963.52
2022-08-03T02:50:29.718Z,963.5
2022-08-03T02:55:31.090Z,963.49
2022-08-03T03:00:33.283Z,963.48
2022-08-03T03:05:51.989Z,963.49
2022-08-03T03:10:35.812Z,963.49
2022-08-03T03:15:37.557Z,963.39
2022-08-03T03:20:39.626Z,963.37
2022-08-03T03:25:41.359Z,963.42
2022-08-03T03:30:43.134Z,963.43
2022-08-03T03:35:45.170Z,963.44
2022-08-03T03:40:46.889Z,963.43
2022-08-03T03:45:48.778Z,963.46
2022-08-03T03:50:51.015Z,963.55
2022-08-03T03:55:57.955Z,963.53
2022-08-03T04:00:54.190Z,963.56
2022-08-03T04:05:55.827Z,963.55
2022-08-03T04:10:57.392Z,963.57
2022-08-03T04:15:58.694Z,963.55
2022-08-03T04:21:00.353Z,963.57
2022-08-03T04:26:01.785Z,963.61
2022-08-03T04:31:03.100Z,963.62
2022-08-03T04:36:04.586Z,963.62
2022-08-03T04:41:05.954Z,963.66
2022-08-03T04:46:08.074Z,963.67
2022-08-03T04:51:09.444Z,963.72
2022-08-03T04:56:11.069Z,963.75
2022-08-03T05:01:13.209Z,963.81
2022-08-03T05:06:14.581Z,963.78
2022-08-03T05:11:16.202Z,963.84
2022-08-03T05:16:18.259Z,963.88
2022-08-03T05:21:19.736Z,963.9
2022-08-03T05:26:20.917Z,963.9
2022-08-03T05:31:22.522Z,963.99
2022-08-03T05:36:24.554Z,963.96
2022-08-03T05:41:36.772Z,963.93
2022-08-03T05:46:28.502Z,963.96
2022-08-03T05:51:30.106Z,963.93
2022-08-03T05:56:31.598Z,963.89
2022-08-03T06:01:32.869Z,963.91
2022-08-03T06:06:34.109Z,963.92
2022-08-03T06:11:35.673Z,963.94
2022-08-03T06:16:37.089Z,963.95
2022-08-03T06:21:38.597Z,964
2022-08-03T06:26:40.385Z,963.96
2022-08-03T06:31:41.829Z,964.06
2022-08-03T06:36:43.838Z,964.17
2022-08-03T06:41:45.582Z,964.14
2022-08-03T06:46:47.663Z,964.09
2022-08-03T06:52:02.713Z,964.04
2022-08-03T06:56:51.192Z,964.09
2022-08-03T07:01:52.509Z,964.09
2022-08-03T07:06:54.353Z,964.08
2022-08-03T07:11:55.753Z,964.08
2022-08-03T07:16:56.996Z,964.08
2022-08-03T07:22:02.336Z,964.1
2022-08-03T07:27:00.501Z,964.02
2022-08-03T07:32:02.323Z,964.02
2022-08-03T07:37:03.779Z,963.97
2022-08-03T07:42:05.675Z,963.98
2022-08-03T07:47:07.065Z,963.96
2022-08-03T07:52:08.607Z,963.96
2022-08-03T07:57:10.692Z,963.96
2022-08-03T08:02:12.710Z,963.9
2022-08-03T08:07:13.980Z,963.91
2022-08-03T08:12:15.921Z,963.87
2022-08-03T08:17:17.470Z,963.86
2022-08-03T08:22:19.024Z,963.85
2022-08-03T08:27:19.909Z,963.84
2022-08-03T08:32:21.183Z,963.83
2022-08-03T08:37:23.035Z,963.83
2022-08-03T08:42:31.981Z,963.79
2022-08-03T08:47:50.730Z,963.77
2022-08-03T08:52:35.309Z,963.76
2022-08-03T08:57:42.645Z,963.68
2022-08-03T09:02:38.907Z,963.65
2022-08-03T09:07:40.329Z,963.64
2022-08-03T09:12:42.807Z,963.64
2022-08-03T09:17:46.489Z,963.7
2022-08-03T09:22:45.653Z,963.66
2022-08-03T09:27:47.331Z,963.7
2022-08-03T09:32:49.239Z,963.64
2022-08-03T09:38:12.408Z,963.71
2022-08-03T09:42:52.692Z,963.65
2022-08-03T09:47:54.490Z,963.7
2022-08-03T09:52:56.016Z,963.66
2022-08-03T09:57:57.738Z,963.74
2022-08-03T10:02:59.255Z,963.71
2022-08-03T10:08:00.685Z,963.66
2022-08-03T10:13:02.004Z,963.69
2022-08-03T10:18:03.220Z,963.55
2022-08-03T10:23:05.181Z,963.55
2022-08-03T10:28:07.207Z,963.58
2022-08-03T10:33:10.858Z,963.46
2022-08-03T10:38:10.528Z,963.47
2022-08-03T10:43:12.350Z,963.43
2022-08-03T10:48:14.204Z,963.34
2022-08-03T10:53:16.660Z,963.28
2022-08-03T10:58:25.160Z,963.22
2022-08-03T11:03:18.841Z,963.13
2022-08-03T11:08:21.030Z,963.06
2022-08-03T11:13:22.743Z,963.1
2022-08-03T11:18:26.812Z,963.13
2022-08-03T11:24:03.654Z,963.11
2022-08-03T11:28:27.146Z,963.05
2022-08-03T11:33:28.316Z,963.08
2022-08-03T11:38:29.827Z,963.04
2022-08-03T11:43:31.727Z,963.01
2022-08-03T11:48:32.456Z,962.97
2022-08-03T11:53:41.858Z,962.94
2022-08-03T11:58:57.695Z,962.94
2022-08-03T12:03:38.145Z,962.94
2022-08-03T12:08:39.529Z,962.86
2022-08-03T12:13:57.110Z,962.83
2022-08-03T12:18:42.874Z,962.74
2022-08-03T12:23:44.909Z,962.74
2022-08-03T12:28:49.711Z,962.74
2022-08-03T12:33:48.572Z,962.64
2022-08-03T13:14:01.630Z,962.54
2022-08-03T13:24:05.272Z,962.58
2022-08-03T13:39:10.825Z,962.45
2022-08-03T13:49:14.110Z,962.39
2022-08-03T13:54:16.119Z,962.22
2022-08-03T13:59:17.717Z,962.16
2022-08-03T14:04:21.991Z,962.16
2022-08-03T14:09:20.585Z,962.1
2022-08-03T14:14:22.108Z,962.06
2022-08-03T14:19:24.872Z,962.09
2022-08-03T14:24:25.817Z,962.05
2022-08-03T14:29:27.362Z,962
2022-08-03T14:34:29.416Z,962
2022-08-03T14:39:58.135Z,962.04
2022-08-03T14:44:33.030Z,961.95
2022-08-03T14:50:35.630Z,961.96
2022-08-03T14:54:36.386Z,961.87
2022-08-03T14:59:53.983Z,961.87
2022-08-03T15:04:39.884Z,961.85
2022-08-03T15:09:41.368Z,961.82
2022-08-03T15:14:42.672Z,961.75
2022-08-03T15:19:59.736Z,961.69
2022-08-03T15:24:45.814Z,961.65
2022-08-03T15:30:06.272Z,961.71
2022-08-03T15:34:50.160Z,961.73
2022-08-03T15:39:58.691Z,961.74
2022-08-03T15:44:52.369Z,961.72
2022-08-03T15:49:53.816Z,961.67
2022-08-03T15:54:55.403Z,961.63
2022-08-03T15:59:57.244Z,961.65
2022-08-03T16:04:58.837Z,961.66
2022-08-03T16:09:59.905Z,961.64
2022-08-03T16:15:01.680Z,961.63
2022-08-03T16:20:05.148Z,961.61
2022-08-03T16:25:05.105Z,961.59
2022-08-03T16:30:06.642Z,961.61
2022-08-03T16:35:08.686Z,961.56
2022-08-03T16:40:17.176Z,961.5
2022-08-03T16:45:11.503Z,961.53
2022-08-03T16:50:19.200Z,961.53
2022-08-03T16:55:15.287Z,961.49
2022-08-03T17:00:33.451Z,961.5
2022-08-03T17:05:18.993Z,961.48
2022-08-03T17:10:21.785Z,961.52
2022-08-03T17:15:37.646Z,961.51
2022-08-03T17:20:29.784Z,961.54
2022-08-03T17:25:40.071Z,961.61
2022-08-03T17:30:28.051Z,961.61
2022-08-03T17:35:34.254Z,961.63
2022-08-03T17:40:30.894Z,961.63
2022-08-03T17:45:42.152Z,961.63
2022-08-03T17:50:33.334Z,961.68
2022-08-03T17:55:51.066Z,961.77
2022-08-03T18:00:36.572Z,961.84
2022-08-03T18:10:46.788Z,961.92
2022-08-03T18:15:42.042Z,961.94
2022-08-03T18:20:45.616Z,961.95
2022-08-03T18:25:50.936Z,961.92
2022-08-03T18:30:53.775Z,961.99
2022-08-03T18:35:53.231Z,961.96
2022-08-03T18:40:50.438Z,962.02
2022-08-03T18:45:56.567Z,961.98
2022-08-03T18:50:53.938Z,962.02
2022-08-03T18:56:01.222Z,962.03
2022-08-03T19:00:57.713Z,962.07
2022-08-03T19:06:01.873Z,962.09
2022-08-03T19:11:00.981Z,962.12
2022-08-03T19:16:01.890Z,962.16
2022-08-03T19:21:03.265Z,962.18
2022-08-03T19:26:04.698Z,962.22
2022-08-03T19:31:06.352Z,962.19
2022-08-03T19:36:10.525Z,962.29
2022-08-03T19:41:08.555Z,962.25
2022-08-03T19:46:09.755Z,962.32
2022-08-03T19:51:12.371Z,962.35
2022-08-03T19:56:13.022Z,962.33
2022-08-03T20:01:19.714Z,962.27
2022-08-03T20:06:17.064Z,962.28
2022-08-03T20:11:18.224Z,962.25
2022-08-03T20:16:19.642Z,962.31
2022-08-03T20:21:21.160Z,962.33
2022-08-03T20:26:23.104Z,962.34
2022-08-03T20:31:32.172Z,962.3
2022-08-03T20:36:27.004Z,962.34
2022-08-03T20:41:28.410Z,962.31
2022-08-03T20:46:41.618Z,962.3
2022-08-03T20:51:49.424Z,962.31
2022-08-03T20:56:33.930Z,962.32
2022-08-03T21:01:36.045Z,962.28
2022-08-03T21:06:37.020Z,962.27
2022-08-03T21:11:38.894Z,962.22
2022-08-03T21:16:40.674Z,962.22
2022-08-03T21:21:42.778Z,962.27
2022-08-03T21:26:44.124Z,962.23
2022-08-03T21:31:46.189Z,962.18
2022-08-03T21:37:05.134Z,962.16
2022-08-03T21:41:49.738Z,962.11
2022-08-03T21:46:51.245Z,962.1
2022-08-03T21:51:52.951Z,962.09
2022-08-03T21:56:55.199Z,962.14
2022-08-03T22:11:59.774Z,962.11
2022-08-03T22:17:01.622Z,962.14
2022-08-03T22:22:03.219Z,962.11
2022-08-03T22:27:04.477Z,962.12
2022-08-03T22:32:05.774Z,962.08
2022-08-03T22:37:07.370Z,962.03
2022-08-03T22:42:09.607Z,962.08
2022-08-03T22:47:10.905Z,962.08
2022-08-03T22:52:12.693Z,962.14
2022-08-03T22:57:14.246Z,962.13
2022-08-03T23:02:20.804Z,962.13
2022-08-03T23:07:16.957Z,962.13
2022-08-03T23:12:18.798Z,962.12
2022-08-03T23:17:20.391Z,962.14
2022-08-03T23:22:29.800Z,962.19
2022-08-03T23:27:23.762Z,962.21
2022-08-03T23:32:25.732Z,962.17
2022-08-03T23:37:27.768Z,962.17
2022-08-03T23:42:29.569Z,962.15
2022-08-03T23:47:46.150Z,962.12
2022-08-03T23:52:33.177Z,962.15
2022-08-03T23:57:35.315Z,962.08
